createdAt,value
2016-06-28T00:00:11.945Z,0
2016-06-28T00:01:13.143Z,0
2016-06-28T00:02:13.151Z,0
2016-06-28T00:03:13.753Z,0
2016-06-28T00:04:13.757Z,0
2016-06-28T00:05:12.571Z,0
2016-06-28T00:06:12.013Z,0
2016-06-28T00:07:13.225Z,0
2016-06-28T00:08:13.840Z,0
2016-06-28T00:09:14.428Z,0
2016-06-28T00:10:13.226Z,0
2016-06-28T00:11:13.255Z,0
2016-06-28T00:12:13.850Z,0
2016-06-28T00:13:13.880Z,0
2016-06-28T00:14:13.866Z,0
2016-06-28T00:15:12.688Z,0
2016-06-28T00:16:12.687Z,0
2016-06-28T00:17:13.898Z,0
2016-06-28T00:18:13.310Z,0
2016-06-28T00:19:13.917Z,0
2016-06-28T00:20:13.922Z,0
2016-06-28T00:21:14.531Z,0
2016-06-28T00:22:13.567Z,0
2016-06-28T00:23:13.363Z,0
2016-06-28T00:24:13.378Z,0
2016-06-28T00:25:12.794Z,0
2016-06-28T00:26:13.433Z,0
2016-06-28T00:27:14.012Z,0
2016-06-28T00:28:14.007Z,0
2016-06-28T00:29:13.406Z,0
2016-06-28T00:30:13.408Z,0
2016-06-28T00:31:14.626Z,0
2016-06-28T00:32:13.443Z,0
2016-06-28T00:33:14.122Z,0
2016-06-28T00:34:13.487Z,0
2016-06-28T00:35:13.470Z,0
2016-06-28T00:36:14.117Z,0
2016-06-28T00:37:12.299Z,0
2016-06-28T00:38:14.714Z,0
2016-06-28T00:39:13.527Z,0
2016-06-28T00:40:12.970Z,0
2016-06-28T00:41:12.975Z,0
2016-06-28T00:42:14.144Z,0
2016-06-28T00:43:13.570Z,0
2016-06-28T00:44:14.149Z,0
2016-06-28T00:45:12.995Z,0
2016-06-28T00:46:14.185Z,0
2016-06-28T00:47:13.615Z,0
2016-06-28T00:48:14.238Z,0
2016-06-28T00:49:14.230Z,0
2016-06-28T00:50:13.629Z,0
2016-06-28T00:51:13.077Z,0
2016-06-28T00:52:14.252Z,0
2016-06-28T00:53:12.447Z,0
2016-06-28T00:54:13.070Z,0
2016-06-28T00:55:13.677Z,0
2016-06-28T00:56:14.869Z,0
2016-06-28T00:57:13.092Z,0
2016-06-28T00:58:13.697Z,0
2016-06-28T00:59:14.911Z,0
2016-06-28T01:00:13.731Z,0
2016-06-28T01:01:14.347Z,0
2016-06-28T01:02:13.766Z,0
2016-06-28T01:03:13.798Z,0
2016-06-28T01:04:13.192Z,0
2016-06-28T01:05:13.178Z,0
2016-06-28T01:06:14.983Z,0
2016-06-28T01:07:12.635Z,0
2016-06-28T01:08:14.414Z,0
2016-06-28T01:09:14.399Z,0
2016-06-28T01:10:13.889Z,0
2016-06-28T01:11:15.024Z,0
2016-06-28T01:12:13.818Z,0
2016-06-28T01:13:13.839Z,0
2016-06-28T01:14:15.106Z,0
2016-06-28T01:15:13.879Z,0
2016-06-28T01:16:15.081Z,0
2016-06-28T01:17:13.889Z,0
2016-06-28T01:18:13.897Z,0
2016-06-28T01:19:13.322Z,0
2016-06-28T01:20:14.534Z,0
2016-06-28T01:21:14.528Z,0
2016-06-28T01:22:13.978Z,0
2016-06-28T01:23:15.140Z,0
2016-06-28T01:24:13.363Z,0
2016-06-28T01:25:15.164Z,0
2016-06-28T01:26:14.639Z,0
2016-06-28T01:27:14.000Z,0
2016-06-28T01:28:13.429Z,0
2016-06-28T01:29:14.608Z,0
2016-06-28T01:30:13.442Z,0
2016-06-28T01:31:13.412Z,0
2016-06-28T01:32:13.433Z,0
2016-06-28T01:33:14.057Z,0
2016-06-28T01:34:14.055Z,0
2016-06-28T01:35:14.140Z,0
2016-06-28T01:36:14.671Z,0
2016-06-28T01:37:14.118Z,0
2016-06-28T01:38:14.692Z,0
2016-06-28T01:39:14.111Z,0
2016-06-28T01:40:12.914Z,0
2016-06-28T01:41:14.733Z,0
2016-06-28T01:42:14.737Z,0
2016-06-28T01:43:14.750Z,0
2016-06-28T01:44:14.740Z,0
2016-06-28T01:45:15.369Z,0
2016-06-28T01:46:13.586Z,0
2016-06-28T01:47:15.380Z,0
2016-06-28T01:48:14.203Z,0
2016-06-28T01:49:14.788Z,0
2016-06-28T01:50:14.829Z,0
2016-06-28T01:51:13.631Z,0
2016-06-28T01:52:15.451Z,0
2016-06-28T01:53:13.628Z,0
2016-06-28T01:54:15.451Z,0
2016-06-28T01:55:13.669Z,0
2016-06-28T01:56:14.871Z,0
2016-06-28T01:57:14.893Z,0
2016-06-28T01:58:14.900Z,0
2016-06-28T01:59:14.903Z,0
2016-06-28T02:00:14.349Z,0
2016-06-28T02:01:13.773Z,0
2016-06-28T02:02:13.706Z,0
2016-06-28T02:03:14.971Z,0
2016-06-28T02:04:14.334Z,0
2016-06-28T02:05:13.178Z,0
2016-06-28T02:06:14.383Z,0
2016-06-28T02:07:15.603Z,0
2016-06-28T02:08:13.799Z,0
2016-06-28T02:09:13.820Z,0
2016-06-28T02:10:14.431Z,0
2016-06-28T02:11:15.005Z,0
2016-06-28T02:12:13.822Z,0
2016-06-28T02:13:14.453Z,0
2016-06-28T02:14:15.667Z,0
2016-06-28T02:15:14.447Z,0
2016-06-28T02:16:14.457Z,0
2016-06-28T02:17:13.874Z,0
2016-06-28T02:18:13.897Z,0
2016-06-28T02:19:15.686Z,0
2016-06-28T02:20:15.086Z,0
2016-06-28T02:21:15.137Z,0
2016-06-28T02:22:15.123Z,0
2016-06-28T02:23:15.148Z,0
2016-06-28T02:24:15.747Z,0
2016-06-28T02:25:14.580Z,0
2016-06-28T02:26:14.018Z,0
2016-06-28T02:27:15.181Z,0
2016-06-28T02:28:14.574Z,0
2016-06-28T02:29:15.182Z,0
2016-06-28T02:30:13.420Z,0
2016-06-28T02:31:14.624Z,0
2016-06-28T02:32:15.246Z,0
2016-06-28T02:33:14.623Z,0
2016-06-28T02:34:15.839Z,0
2016-06-28T02:35:14.662Z,0
2016-06-28T02:36:14.088Z,0
2016-06-28T02:37:15.266Z,0
2016-06-28T02:38:15.299Z,0
2016-06-28T02:39:15.881Z,0
2016-06-28T02:40:14.111Z,0
2016-06-28T02:41:14.132Z,0
2016-06-28T02:42:14.116Z,0
2016-06-28T02:43:15.296Z,0
2016-06-28T02:44:15.380Z,0
2016-06-28T02:45:13.544Z,0
2016-06-28T02:46:14.183Z,0
2016-06-28T02:47:14.763Z,0
2016-06-28T02:48:16.028Z,0
2016-06-28T02:49:14.781Z,0
2016-06-28T02:50:15.421Z,0
2016-06-28T02:51:14.788Z,0
2016-06-28T02:52:13.590Z,0
2016-06-28T02:53:14.828Z,0
2016-06-28T02:54:14.829Z,0
2016-06-28T02:55:14.843Z,0
2016-06-28T02:56:14.243Z,0
2016-06-28T02:57:14.278Z,0
2016-06-28T02:58:14.267Z,0
2016-06-28T02:59:14.277Z,0
2016-06-28T03:00:14.888Z,0
2016-06-28T03:01:13.691Z,0
2016-06-28T03:02:16.154Z,0
2016-06-28T03:03:14.939Z,0
2016-06-28T03:04:14.919Z,0
2016-06-28T03:05:14.937Z,0
2016-06-28T03:06:13.781Z,0
2016-06-28T03:07:14.987Z,0
2016-06-28T03:08:14.966Z,0
2016-06-28T03:09:15.611Z,0
2016-06-28T03:10:15.580Z,0
2016-06-28T03:11:14.399Z,0
2016-06-28T03:12:14.445Z,0
2016-06-28T03:13:15.022Z,0
2016-06-28T03:14:15.032Z,0
2016-06-28T03:15:15.044Z,0
2016-06-28T03:16:15.047Z,0
2016-06-28T03:17:14.461Z,0
2016-06-28T03:18:15.656Z,0
2016-06-28T03:19:15.083Z,0
2016-06-28T03:20:15.094Z,0
2016-06-28T03:21:15.073Z,0
2016-06-28T03:22:14.499Z,0
2016-06-28T03:23:16.309Z,0
2016-06-28T03:24:16.321Z,0
2016-06-28T03:25:15.158Z,0
2016-06-28T03:26:13.989Z,0
2016-06-28T03:27:14.568Z,0
2016-06-28T03:28:15.174Z,0
2016-06-28T03:29:13.989Z,0
2016-06-28T03:30:13.990Z,0
2016-06-28T03:31:14.600Z,0
2016-06-28T03:32:15.787Z,0
2016-06-28T03:33:14.638Z,0
2016-06-28T03:34:15.826Z,0
2016-06-28T03:35:15.227Z,0
2016-06-28T03:36:15.229Z,0
2016-06-28T03:37:15.266Z,0
2016-06-28T03:38:15.261Z,0
2016-06-28T03:39:15.270Z,0
2016-06-28T03:40:14.721Z,0
2016-06-28T03:41:16.479Z,0
2016-06-28T03:42:15.287Z,0
2016-06-28T03:43:15.346Z,0
2016-06-28T03:44:15.907Z,0
2016-06-28T03:45:15.946Z,0
2016-06-28T03:46:14.730Z,0
2016-06-28T03:47:16.544Z,0
2016-06-28T03:48:15.370Z,0
2016-06-28T03:49:16.606Z,0
2016-06-28T03:50:14.194Z,0
2016-06-28T03:51:15.989Z,0
2016-06-28T03:52:15.404Z,0
2016-06-28T03:53:15.999Z,0
2016-06-28T03:54:15.439Z,0
2016-06-28T03:55:15.429Z,0
2016-06-28T03:56:15.425Z,0
2016-06-28T03:57:14.241Z,0
2016-06-28T03:58:15.469Z,0
2016-06-28T03:59:16.690Z,0
2016-06-28T04:00:14.928Z,0
2016-06-28T04:01:14.903Z,0
2016-06-28T04:02:15.481Z,0
2016-06-28T04:03:14.891Z,0
2016-06-28T04:04:16.092Z,0
2016-06-28T04:05:15.517Z,0
2016-06-28T04:06:15.544Z,0
2016-06-28T04:07:15.543Z,0
2016-06-28T04:08:15.559Z,0
2016-06-28T04:09:14.974Z,0
2016-06-28T04:10:15.578Z,0
2016-06-28T04:11:15.587Z,0
2016-06-28T04:12:14.980Z,0
2016-06-28T04:13:14.999Z,0
2016-06-28T04:14:15.607Z,0
2016-06-28T04:15:15.614Z,0
2016-06-28T04:16:15.624Z,5
2016-06-28T04:17:16.243Z,5
2016-06-28T04:18:15.653Z,5
2016-06-28T04:19:15.661Z,5
2016-06-28T04:20:15.658Z,5
2016-06-28T04:21:15.106Z,5
2016-06-28T04:22:15.693Z,5
2016-06-28T04:23:16.296Z,5
2016-06-28T04:24:15.702Z,5
2016-06-28T04:25:14.531Z,5
2016-06-28T04:26:16.927Z,5
2016-06-28T04:27:15.725Z,5
2016-06-28T04:28:14.563Z,5
2016-06-28T04:29:15.764Z,5
2016-06-28T04:30:16.424Z,5
2016-06-28T04:31:15.169Z,5
2016-06-28T04:32:16.417Z,5
2016-06-28T04:33:16.432Z,5
2016-06-28T04:34:16.437Z,5
2016-06-28T04:35:16.442Z,5
2016-06-28T04:36:15.847Z,5
2016-06-28T04:37:16.433Z,5
2016-06-28T04:38:15.254Z,5
2016-06-28T04:39:15.855Z,5
2016-06-28T04:40:15.269Z,5
2016-06-28T04:41:16.477Z,5
2016-06-28T04:42:15.903Z,5
2016-06-28T04:43:16.477Z,5
2016-06-28T04:44:16.505Z,5
2016-06-28T04:45:16.526Z,5
2016-06-28T04:46:15.912Z,5
2016-06-28T04:47:16.541Z,5
2016-06-28T04:48:16.539Z,5
2016-06-28T04:49:15.359Z,5
2016-06-28T04:50:16.568Z,5
2016-06-28T04:51:16.578Z,5
2016-06-28T04:52:15.373Z,5
2016-06-28T04:53:16.582Z,5
2016-06-28T04:54:17.263Z,5
2016-06-28T04:55:14.810Z,5
2016-06-28T04:56:17.252Z,5
2016-06-28T04:57:16.639Z,5
2016-06-28T04:58:16.643Z,10
2016-06-28T04:59:16.055Z,10
2016-06-28T05:00:16.067Z,10
2016-06-28T05:01:16.090Z,10
2016-06-28T05:02:16.073Z,10
2016-06-28T05:03:16.098Z,10
2016-06-28T05:04:16.131Z,10
2016-06-28T05:05:16.733Z,10
2016-06-28T05:06:14.947Z,10
2016-06-28T05:07:16.123Z,10
2016-06-28T05:08:16.146Z,10
2016-06-28T05:09:15.563Z,10
2016-06-28T05:10:16.760Z,10
2016-06-28T05:11:17.369Z,10
2016-06-28T05:12:16.206Z,10
2016-06-28T05:13:16.172Z,10
2016-06-28T05:14:16.170Z,10
2016-06-28T05:15:16.777Z,10
2016-06-28T05:16:16.795Z,10
2016-06-28T05:17:16.843Z,10
2016-06-28T05:18:16.232Z,10
2016-06-28T05:19:16.238Z,10
2016-06-28T05:20:16.850Z,10
2016-06-28T05:21:16.853Z,10
2016-06-28T05:22:15.083Z,10
2016-06-28T05:23:16.870Z,10
2016-06-28T05:24:15.683Z,10
2016-06-28T05:25:16.890Z,10
2016-06-28T05:26:16.340Z,10
2016-06-28T05:27:16.317Z,10
2016-06-28T05:28:16.923Z,10
2016-06-28T05:29:16.934Z,10
2016-06-28T05:30:16.922Z,10
2016-06-28T05:32:15.752Z,10
2016-06-28T05:33:16.380Z,10
2016-06-28T05:34:16.386Z,10
2016-06-28T05:35:16.401Z,10
2016-06-28T05:36:17.013Z,10
2016-06-28T05:37:16.432Z,10
2016-06-28T05:38:17.020Z,10
2016-06-28T05:39:15.874Z,10
2016-06-28T05:40:16.427Z,10
2016-06-28T05:41:17.636Z,10
2016-06-28T05:42:17.061Z,10
2016-06-28T05:43:15.869Z,15
2016-06-28T05:44:17.073Z,15
2016-06-28T05:45:17.131Z,15
2016-06-28T05:46:15.905Z,15
2016-06-28T05:47:15.907Z,15
2016-06-28T05:48:15.902Z,15
2016-06-28T05:49:17.183Z,15
2016-06-28T05:50:17.129Z,15
2016-06-28T05:51:16.538Z,15
2016-06-28T05:52:16.549Z,15
2016-06-28T05:53:16.556Z,15
2016-06-28T05:54:16.586Z,15
2016-06-28T05:55:15.974Z,20
2016-06-28T05:56:16.610Z,20
2016-06-28T05:57:16.003Z,20
2016-06-28T05:58:16.039Z,20
2016-06-28T05:59:17.221Z,20
2016-06-28T06:00:16.661Z,20
2016-06-28T06:01:17.841Z,20
2016-06-28T06:02:16.034Z,20
2016-06-28T06:03:16.654Z,20
2016-06-28T06:04:17.851Z,20
2016-06-28T06:05:17.278Z,20
2016-06-28T06:06:16.100Z,20
2016-06-28T06:07:17.910Z,20
2016-06-28T06:08:17.299Z,20
2016-06-28T06:09:17.324Z,20
2016-06-28T06:10:16.725Z,20
2016-06-28T06:11:16.160Z,20
2016-06-28T06:12:16.734Z,20
2016-06-28T06:13:16.783Z,20
2016-06-28T06:14:16.777Z,20
2016-06-28T06:15:17.359Z,20
2016-06-28T06:16:17.996Z,20
2016-06-28T06:17:16.210Z,20
2016-06-28T06:18:17.410Z,20
2016-06-28T06:19:16.818Z,20
2016-06-28T06:20:16.838Z,20
2016-06-28T06:21:17.088Z,20
2016-06-28T06:22:16.873Z,20
2016-06-28T06:23:18.126Z,20
2016-06-28T06:24:18.071Z,20
2016-06-28T06:25:16.887Z,20
2016-06-28T06:26:16.886Z,20
2016-06-28T06:27:17.591Z,20
2016-06-28T06:28:18.106Z,20
2016-06-28T06:29:17.507Z,20
2016-06-28T06:30:17.501Z,20
2016-06-28T06:31:16.346Z,20
2016-06-28T06:32:16.953Z,20
2016-06-28T06:33:16.376Z,20
2016-06-28T06:34:17.547Z,25
2016-06-28T06:35:16.963Z,25
2016-06-28T06:36:17.582Z,25
2016-06-28T06:37:15.813Z,25
2016-06-28T06:38:17.625Z,25
2016-06-28T06:39:18.219Z,25
2016-06-28T06:40:17.038Z,25
2016-06-28T06:41:17.070Z,25
2016-06-28T06:42:16.437Z,25
2016-06-28T06:43:17.050Z,30
2016-06-28T06:44:17.086Z,25
2016-06-28T06:45:17.084Z,25
2016-06-28T06:46:17.738Z,25
2016-06-28T06:47:17.676Z,25
2016-06-28T06:48:17.110Z,25
2016-06-28T06:49:16.510Z,25
2016-06-28T06:50:17.720Z,30
2016-06-28T06:51:17.738Z,30
2016-06-28T06:52:17.745Z,30
2016-06-28T06:53:17.139Z,30
2016-06-28T06:54:18.375Z,30
2016-06-28T06:55:17.775Z,30
2016-06-28T06:56:15.994Z,30
2016-06-28T06:57:17.417Z,30
2016-06-28T06:58:17.207Z,30
2016-06-28T06:59:16.594Z,30
2016-06-28T07:00:16.607Z,30
2016-06-28T07:01:17.887Z,30
2016-06-28T07:02:17.819Z,30
2016-06-28T07:03:17.850Z,30
2016-06-28T07:04:18.468Z,30
2016-06-28T07:05:17.266Z,30
2016-06-28T07:06:18.482Z,30
2016-06-28T07:07:16.705Z,30
2016-06-28T07:08:17.865Z,25
2016-06-28T07:09:17.306Z,25
2016-06-28T07:10:16.696Z,30
2016-06-28T07:11:17.913Z,35
2016-06-28T07:12:17.924Z,30
2016-06-28T07:13:18.523Z,30
2016-06-28T07:14:17.948Z,30
2016-06-28T07:15:17.958Z,30
2016-06-28T07:16:17.408Z,30
2016-06-28T07:17:18.014Z,30
2016-06-28T07:18:18.001Z,25
2016-06-28T07:19:16.797Z,25
2016-06-28T07:20:17.415Z,30
2016-06-28T07:21:17.398Z,30
2016-06-28T07:22:18.599Z,30
2016-06-28T07:23:18.664Z,30
2016-06-28T07:24:17.440Z,30
2016-06-28T07:25:16.902Z,30
2016-06-28T07:26:16.873Z,25
2016-06-28T07:27:18.203Z,25
2016-06-28T07:28:18.086Z,25
2016-06-28T07:29:18.081Z,25
2016-06-28T07:30:17.508Z,30
2016-06-28T07:31:17.514Z,30
2016-06-28T07:32:16.935Z,25
2016-06-28T07:33:16.321Z,25
2016-06-28T07:34:18.152Z,25
2016-06-28T07:35:18.176Z,25
2016-06-28T07:36:17.628Z,25
2016-06-28T07:37:16.986Z,25
2016-06-28T07:38:17.579Z,25
2016-06-28T07:39:17.632Z,25
2016-06-28T07:40:18.823Z,25
2016-06-28T07:41:17.622Z,25
2016-06-28T07:42:17.036Z,25
2016-06-28T07:43:18.236Z,25
2016-06-28T07:44:18.272Z,25
2016-06-28T07:45:17.639Z,25
2016-06-28T07:46:17.677Z,25
2016-06-28T07:47:17.657Z,25
2016-06-28T07:48:16.491Z,25
2016-06-28T07:49:17.699Z,20
2016-06-28T07:50:17.709Z,20
2016-06-28T07:51:18.321Z,25
2016-06-28T07:52:17.722Z,30
2016-06-28T07:53:17.774Z,30
2016-06-28T07:54:18.343Z,25
2016-06-28T07:55:17.769Z,25
2016-06-28T07:56:18.369Z,25
2016-06-28T07:57:17.175Z,30
2016-06-28T07:58:18.359Z,25
2016-06-28T07:59:17.190Z,25
2016-06-28T08:00:17.820Z,25
2016-06-28T08:01:18.386Z,25
2016-06-28T08:02:17.825Z,25
2016-06-28T08:03:17.819Z,25
2016-06-28T08:04:18.431Z,25
2016-06-28T08:05:17.247Z,25
2016-06-28T08:06:17.268Z,25
2016-06-28T08:07:17.907Z,25
2016-06-28T08:08:17.915Z,25
2016-06-28T08:09:17.925Z,25
2016-06-28T08:10:18.487Z,25
2016-06-28T08:11:18.502Z,25
2016-06-28T08:12:18.526Z,25
2016-06-28T08:13:17.913Z,25
2016-06-28T08:14:16.751Z,25
2016-06-28T08:15:17.942Z,30
2016-06-28T08:16:17.966Z,30
2016-06-28T08:17:18.568Z,35
2016-06-28T08:18:17.990Z,35
2016-06-28T08:19:18.582Z,35
2016-06-28T08:20:17.967Z,35
2016-06-28T08:21:18.030Z,35
2016-06-28T08:22:17.443Z,30
2016-06-28T08:23:17.464Z,30
2016-06-28T08:24:18.621Z,25
2016-06-28T08:25:18.654Z,25
2016-06-28T08:26:18.634Z,30
2016-06-28T08:27:18.267Z,30
2016-06-28T08:28:17.470Z,30
2016-06-28T08:29:16.877Z,30
2016-06-28T08:30:19.287Z,30
2016-06-28T08:31:17.491Z,25
2016-06-28T08:32:19.304Z,30
2016-06-28T08:33:18.102Z,30
2016-06-28T08:34:18.718Z,30
2016-06-28T08:35:18.164Z,30
2016-06-28T08:36:18.759Z,30
2016-06-28T08:37:18.771Z,35
2016-06-28T08:38:18.163Z,35
2016-06-28T08:39:18.317Z,35
2016-06-28T08:40:17.623Z,35
2016-06-28T08:41:18.199Z,30
2016-06-28T08:42:18.840Z,30
2016-06-28T08:43:17.673Z,40
2016-06-28T08:44:18.829Z,45
2016-06-28T08:45:18.249Z,45
2016-06-28T08:46:18.852Z,45
2016-06-28T08:47:17.678Z,30
2016-06-28T08:48:18.898Z,40
2016-06-28T08:49:18.867Z,45
2016-06-28T08:50:18.369Z,45
2016-06-28T08:51:18.295Z,45
2016-06-28T08:52:18.895Z,50
2016-06-28T08:53:17.724Z,55
2016-06-28T08:54:18.924Z,50
2016-06-28T08:55:17.726Z,55
2016-06-28T08:56:18.352Z,50
2016-06-28T08:57:18.366Z,50
2016-06-28T08:58:18.986Z,40
2016-06-28T08:59:18.382Z,35
2016-06-28T09:00:17.775Z,40
2016-06-28T09:01:18.392Z,40
2016-06-28T09:02:17.800Z,40
2016-06-28T09:03:17.837Z,40
2016-06-28T09:04:19.628Z,40
2016-06-28T09:05:18.434Z,45
2016-06-28T09:06:17.234Z,40
2016-06-28T09:07:19.073Z,40
2016-06-28T09:08:19.101Z,40
2016-06-28T09:09:19.068Z,40
2016-06-28T09:10:17.335Z,45
2016-06-28T09:11:19.303Z,50
2016-06-28T09:12:17.318Z,55
2016-06-28T09:13:17.331Z,50
2016-06-28T09:14:18.535Z,50
2016-06-28T09:15:17.949Z,55
2016-06-28T09:16:18.539Z,55
2016-06-28T09:17:18.574Z,60
2016-06-28T09:18:17.963Z,55
2016-06-28T09:19:19.200Z,60
2016-06-28T09:20:18.577Z,60
2016-06-28T09:21:19.181Z,55
2016-06-28T09:22:17.991Z,60
2016-06-28T09:23:18.015Z,60
2016-06-28T09:24:18.639Z,55
2016-06-28T09:25:19.239Z,60
2016-06-28T09:26:19.256Z,45
2016-06-28T09:27:19.252Z,50
2016-06-28T09:28:18.064Z,50
2016-06-28T09:29:19.263Z,55
2016-06-28T09:30:18.098Z,50
2016-06-28T09:31:19.322Z,55
2016-06-28T09:32:18.122Z,55
2016-06-28T09:33:18.754Z,40
2016-06-28T09:34:18.111Z,40
2016-06-28T09:35:19.334Z,60
2016-06-28T09:36:18.155Z,50
2016-06-28T09:37:19.354Z,45
2016-06-28T09:38:19.352Z,50
2016-06-28T09:39:18.160Z,45
2016-06-28T09:40:19.386Z,40
2016-06-28T09:41:18.839Z,40
2016-06-28T09:42:18.226Z,45
2016-06-28T09:43:18.209Z,45
2016-06-28T09:44:18.826Z,40
2016-06-28T09:45:19.435Z,40
2016-06-28T09:46:18.253Z,40
2016-06-28T09:47:19.460Z,40
2016-06-28T09:48:19.039Z,45
2016-06-28T09:49:18.267Z,45
2016-06-28T09:50:18.866Z,45
2016-06-28T09:51:18.893Z,50
2016-06-28T09:52:19.535Z,50
2016-06-28T09:53:18.890Z,50
2016-06-28T09:54:20.139Z,50
2016-06-28T09:55:19.587Z,50
2016-06-28T09:56:18.345Z,50
2016-06-28T09:57:18.944Z,50
2016-06-28T09:58:18.974Z,45
2016-06-28T09:59:19.572Z,45
2016-06-28T10:00:18.374Z,50
2016-06-28T10:01:18.994Z,60
2016-06-28T10:02:19.591Z,50
2016-06-28T10:03:19.601Z,50
2016-06-28T10:04:19.621Z,55
2016-06-28T10:05:20.252Z,60
2016-06-28T10:06:19.645Z,65
2016-06-28T10:07:20.229Z,65
2016-06-28T10:08:19.685Z,65
2016-06-28T10:09:19.652Z,70
2016-06-28T10:10:19.681Z,65
2016-06-28T10:11:18.472Z,65
2016-06-28T10:12:19.108Z,75
2016-06-28T10:13:19.690Z,65
2016-06-28T10:14:18.507Z,55
2016-06-28T10:15:20.380Z,55
2016-06-28T10:16:19.975Z,50
2016-06-28T10:17:17.953Z,55
2016-06-28T10:18:18.554Z,55
2016-06-28T10:19:19.747Z,55
2016-06-28T10:20:20.377Z,60
2016-06-28T10:21:18.585Z,65
2016-06-28T10:22:19.821Z,70
2016-06-28T10:23:19.189Z,75
2016-06-28T10:24:19.212Z,55
2016-06-28T10:25:19.279Z,60
2016-06-28T10:26:18.043Z,65
2016-06-28T10:27:19.242Z,65
2016-06-28T10:28:18.643Z,65
2016-06-28T10:29:19.328Z,65
2016-06-28T10:30:19.279Z,60
2016-06-28T10:31:18.684Z,60
2016-06-28T10:32:19.891Z,60
2016-06-28T10:33:19.303Z,60
2016-06-28T10:34:18.730Z,60
2016-06-28T10:35:18.735Z,60
2016-06-28T10:36:19.930Z,55
2016-06-28T10:37:18.731Z,55
2016-06-28T10:38:19.970Z,45
2016-06-28T10:39:19.386Z,55
2016-06-28T10:40:20.567Z,60
2016-06-28T10:41:18.184Z,65
2016-06-28T10:42:20.019Z,70
2016-06-28T10:43:18.836Z,60
2016-06-28T10:44:20.626Z,60
2016-06-28T10:45:18.827Z,60
2016-06-28T10:46:19.490Z,60
2016-06-28T10:47:20.063Z,70
2016-06-28T10:48:19.495Z,75
2016-06-28T10:49:20.670Z,70
2016-06-28T10:50:19.479Z,65
2016-06-28T10:51:18.905Z,65
2016-06-28T10:52:18.915Z,60
2016-06-28T10:53:18.934Z,60
2016-06-28T10:54:19.517Z,65
2016-06-28T10:55:18.963Z,65
2016-06-28T10:56:20.139Z,40
2016-06-28T10:57:20.174Z,50
2016-06-28T10:58:18.957Z,45
2016-06-28T10:59:20.785Z,40
2016-06-28T11:00:19.580Z,45
2016-06-28T11:01:20.192Z,45
2016-06-28T11:02:19.643Z,50
2016-06-28T11:03:20.222Z,65
2016-06-28T11:04:20.222Z,60
2016-06-28T11:05:20.260Z,60
2016-06-28T11:06:18.450Z,60
2016-06-28T11:07:20.263Z,60
2016-06-28T11:08:19.695Z,55
2016-06-28T11:09:19.671Z,60
2016-06-28T11:10:19.711Z,30
2016-06-28T11:11:19.710Z,30
2016-06-28T11:12:19.700Z,30
2016-06-28T11:13:19.729Z,30
2016-06-28T11:14:20.914Z,60
2016-06-28T11:15:20.928Z,60
2016-06-28T11:16:20.371Z,60
2016-06-28T11:17:20.971Z,60
2016-06-28T11:18:20.375Z,55
2016-06-28T11:19:19.774Z,55
2016-06-28T11:20:19.197Z,50
2016-06-28T11:21:19.798Z,30
2016-06-28T11:22:20.410Z,35
2016-06-28T11:23:20.465Z,70
2016-06-28T11:24:19.835Z,70
2016-06-28T11:25:19.220Z,65
2016-06-28T11:26:20.457Z,60
2016-06-28T11:27:19.870Z,60
2016-06-28T11:28:19.283Z,65
2016-06-28T11:29:19.302Z,65
2016-06-28T11:30:21.119Z,70
2016-06-28T11:31:19.326Z,70
2016-06-28T11:32:19.937Z,65
2016-06-28T11:33:19.946Z,65
2016-06-28T11:34:19.940Z,60
2016-06-28T11:35:19.955Z,70
2016-06-28T11:36:19.965Z,60
2016-06-28T11:37:19.967Z,65
2016-06-28T11:38:21.183Z,65
2016-06-28T11:39:20.573Z,55
2016-06-28T11:40:19.455Z,60
2016-06-28T11:41:20.003Z,75
2016-06-28T11:42:18.815Z,80
2016-06-28T11:43:21.263Z,70
2016-06-28T11:44:20.025Z,60
2016-06-28T11:45:19.453Z,35
2016-06-28T11:46:20.671Z,30
2016-06-28T11:47:18.864Z,35
2016-06-28T11:48:20.305Z,55
2016-06-28T11:49:20.089Z,30
2016-06-28T11:50:20.146Z,30
2016-06-28T11:51:19.514Z,30
2016-06-28T11:52:18.987Z,30
2016-06-28T11:53:20.166Z,30
2016-06-28T11:54:21.348Z,35
2016-06-28T11:55:19.567Z,35
2016-06-28T11:56:19.573Z,60
2016-06-28T11:57:20.806Z,45
2016-06-28T11:58:20.214Z,50
2016-06-28T11:59:19.615Z,50
2016-06-28T12:00:20.843Z,40
2016-06-28T12:01:20.836Z,55
2016-06-28T12:02:20.807Z,40
2016-06-28T12:03:20.247Z,40
2016-06-28T12:04:20.875Z,35
2016-06-28T12:05:20.906Z,35
2016-06-28T12:06:20.252Z,55
2016-06-28T12:07:20.330Z,50
2016-06-28T12:08:20.874Z,55
2016-06-28T12:09:20.308Z,50
2016-06-28T12:10:20.311Z,55
2016-06-28T12:11:20.320Z,55
2016-06-28T12:12:20.342Z,60
2016-06-28T12:13:19.738Z,50
2016-06-28T12:14:20.384Z,35
2016-06-28T12:15:21.615Z,55
2016-06-28T12:16:20.368Z,35
2016-06-28T12:17:20.375Z,35
2016-06-28T12:18:20.422Z,35
2016-06-28T12:19:20.999Z,35
2016-06-28T12:20:21.635Z,30
2016-06-28T12:21:20.414Z,30
2016-06-28T12:22:21.042Z,60
2016-06-28T12:23:20.447Z,55
2016-06-28T12:24:21.645Z,30
2016-06-28T12:25:19.299Z,55
2016-06-28T12:26:21.767Z,35
2016-06-28T12:27:21.427Z,45
2016-06-28T12:28:19.303Z,35
2016-06-28T12:29:21.207Z,40
2016-06-28T12:30:20.531Z,50
2016-06-28T12:31:20.542Z,35
2016-06-28T12:33:24.698Z,40
2016-06-28T12:33:35.238Z,50
2016-06-28T12:34:35.257Z,60
2016-06-28T12:35:35.869Z,60
2016-06-28T12:36:35.278Z,60
2016-06-28T12:37:34.094Z,55
2016-06-28T12:38:34.695Z,50
2016-06-28T12:39:35.324Z,80
2016-06-28T12:40:35.376Z,70
2016-06-28T12:41:35.907Z,80
2016-06-28T12:42:35.992Z,80
2016-06-28T12:43:35.335Z,50
2016-06-28T12:44:35.951Z,45
2016-06-28T12:45:35.376Z,45
2016-06-28T12:46:34.775Z,40
2016-06-28T12:47:35.408Z,40
2016-06-28T12:48:36.018Z,35
2016-06-28T12:49:36.623Z,35
2016-06-28T12:50:36.033Z,30
2016-06-28T12:51:36.042Z,30
2016-06-28T12:52:36.056Z,30
2016-06-28T12:53:36.047Z,55
2016-06-28T12:54:35.434Z,30
2016-06-28T12:55:36.676Z,60
2016-06-28T12:56:36.681Z,60
2016-06-28T12:57:35.517Z,60
2016-06-28T12:58:35.482Z,60
2016-06-28T12:59:34.317Z,60
2016-06-28T13:00:34.916Z,60
2016-06-28T13:01:36.743Z,35
2016-06-28T13:02:34.923Z,40
2016-06-28T13:03:36.739Z,35
2016-06-28T13:04:34.972Z,35
2016-06-28T13:05:36.784Z,35
2016-06-28T13:06:35.583Z,35
2016-06-28T13:07:35.600Z,35
2016-06-28T13:08:34.994Z,35
2016-06-28T13:09:36.807Z,40
2016-06-28T13:10:36.233Z,40
2016-06-28T13:11:36.835Z,35
2016-06-28T13:12:36.869Z,35
2016-06-28T13:13:35.063Z,40
2016-06-28T13:14:36.255Z,40
2016-06-28T13:15:35.659Z,40
2016-06-28T13:16:35.684Z,40
2016-06-28T13:17:36.320Z,40
2016-06-28T13:18:36.954Z,35
2016-06-28T13:19:35.168Z,35
2016-06-28T13:20:35.746Z,60
2016-06-28T13:21:35.190Z,35
2016-06-28T13:22:35.156Z,35
2016-06-28T13:23:36.366Z,35
2016-06-28T13:24:36.405Z,30
2016-06-28T13:25:36.399Z,30
2016-06-28T13:26:35.214Z,30
2016-06-28T13:27:35.227Z,30
2016-06-28T13:28:36.416Z,30
2016-06-28T13:29:36.434Z,40
2016-06-28T13:30:35.839Z,30
2016-06-28T13:31:36.454Z,30
2016-06-28T13:32:35.894Z,30
2016-06-28T13:33:35.875Z,30
2016-06-28T13:34:36.490Z,30
2016-06-28T13:35:35.881Z,30
2016-06-28T13:36:35.925Z,30
2016-06-28T13:37:35.945Z,35
2016-06-28T13:38:35.326Z,35
2016-06-28T13:39:36.557Z,30
2016-06-28T13:40:36.632Z,30
2016-06-28T13:41:35.978Z,30
2016-06-28T13:42:35.974Z,35
2016-06-28T13:43:36.628Z,45
2016-06-28T13:44:36.625Z,50
2016-06-28T13:45:35.415Z,40
2016-06-28T13:46:36.043Z,40
2016-06-28T13:47:37.245Z,50
2016-06-28T13:48:36.652Z,50
2016-06-28T13:49:36.046Z,50
2016-06-28T13:50:37.272Z,50
2016-06-28T13:51:36.706Z,45
2016-06-28T13:52:34.880Z,45
2016-06-28T13:53:36.126Z,45
2016-06-28T13:54:36.123Z,45
2016-06-28T13:55:36.175Z,45
2016-06-28T13:56:36.747Z,45
2016-06-28T13:57:37.347Z,30
2016-06-28T13:58:37.347Z,40
2016-06-28T13:59:36.772Z,40
2016-06-28T14:00:36.759Z,25
2016-06-28T14:01:34.995Z,40
2016-06-28T14:02:36.203Z,40
2016-06-28T14:03:36.219Z,40
2016-06-28T14:04:36.223Z,30
2016-06-28T14:05:36.237Z,25
2016-06-28T14:06:36.291Z,25
2016-06-28T14:07:36.234Z,30
2016-06-28T14:08:36.520Z,40
2016-06-28T14:09:36.264Z,25
2016-06-28T14:10:36.286Z,30
2016-06-28T14:11:35.715Z,30
2016-06-28T14:12:36.315Z,35
2016-06-28T14:13:36.940Z,35
2016-06-28T14:14:36.344Z,35
2016-06-28T14:15:37.554Z,35
2016-06-28T14:16:36.352Z,35
2016-06-28T14:17:36.987Z,35
2016-06-28T14:18:35.772Z,35
2016-06-28T14:19:35.802Z,30
2016-06-28T14:20:35.792Z,30
2016-06-28T14:21:35.864Z,30
2016-06-28T14:22:35.823Z,30
2016-06-28T14:23:37.022Z,40
2016-06-28T14:24:37.074Z,30
2016-06-28T14:25:37.035Z,50
2016-06-28T14:26:35.883Z,35
2016-06-28T14:27:36.547Z,35